Weather observations for the past three days for
Lewiston, Lewiston-Nez Perce County Airport
Metric (Imperial)
Date Time (pdt) Wind (kph) Vis. (km) Weather Sky Cond. Temperature (ºC) Relative Humidity Wind Chill (°C) Heat Index (°C) Pressure Precipitation (cm)
Air Dwpt 6 hour altimeter (cm) sea level (mb) 1 hr 3 hr 6 hr
Max. Min.
06 15:56 NW 22 G 35 16.09 Fair CLR 27.2 6.7 27% 26 75.82 1010.1
06 14:56 NW 19 G 30 16.09 Fair CLR 27.8 8.9 31% 27 75.9 1011.1
06 13:56 NE 13 16.09 Fair CLR 26.1 8.3 32% 26 75.92 1011.4
06 12:56 Vrbl 7 16.09 Fair CLR 25 7.8 33% 25 75.97 1012.0
06 11:56 Vrbl 6 16.09 Fair CLR 22.8 6.7 35% 76.02 1013.1
06 10:56 Calm 16.09 Fair CLR 20 5 20 10.6 38% 76.07 1013.8
06 09:56 N 11 16.09 Fair CLR 18.3 6.1 45% 76.07 1014.0
06 08:56 NW 7 16.09 Fair CLR 15.6 5.6 52% 76.12 1014.2
06 07:56 E 13 16.09 Fair CLR 14.4 3.9 50% 76.12 1014.3
06 06:56 Calm 16.09 Fair CLR 12.2 4.4 59% 76.12 1014.3
06 05:56 Vrbl 6 16.09 Fair CLR 11.1 2.8 57% 76.07 1013.7
06 04:56 Calm 16.09 Fair CLR 11.1 3.3 16.7 10.6 59% 76.05 1013.2
06 03:56 Calm 16.09 Fair CLR 11.1 4.4 64% 76.05 1013.2
06 02:56 SE 7 16.09 Fair CLR 11.1 3.3 59% 76 1012.8
06 01:56 E 11 16.09 Fair CLR 14.4 3.9 50% 76 1012.3
06 00:56 NW 6 16.09 Fair CLR 14.4 3.3 48% 75.95 1012.1
05 23:56 S 6 16.09 Fair CLR 15 3.3 46% 75.92 1011.7
05 22:56 S 15 16.09 Fair CLR 16.7 2.8 26.1 16.1 40% 75.9 1011.1
05 21:56 S 11 16.09 Fair CLR 16.1 3.9 44% 75.84 1010.7
05 20:56 NW 9 16.09 Fair CLR 19.4 1.7 31% 75.82 1010.3
05 19:56 N 9 16.09 Fair CLR 21.1 2.2 29% 75.79 1009.8
05 18:56 N 17 16.09 Fair CLR 23.9 2.2 24% 25 75.77 1009.6
05 17:56 N 26 16.09 Fair CLR 25 2.8 24% 25 75.74 1009.4
05 16:56 N 24 G 37 16.09 Fair CLR 26.1 2.8 26.7 20.6 22% 26 75.74 1009.3
05 15:56 NW 19 G 33 16.09 Fair CLR 26.7 3.9 23% 26 75.77 1009.4
05 14:56 Vrbl 11 16.09 A Few Clouds FEW100 25.6 5 27% 26 75.79 1010.0
05 13:56 Vrbl 6 16.09 Fair CLR 25 5 28% 25 75.84 1010.6
05 12:56 Calm 16.09 Fair CLR 22.8 3.9 29% 75.87 1010.9
05 11:56 NW 11 16.09 Fair CLR 22.2 5.6 34% 75.9 1011.0
05 10:56 Calm 16.09 Fair CLR 20.6 5 20.6 10.6 36% 75.92 1011.3
05 09:56 NE 9 16.09 Fair CLR 19.4 5 39% 75.92 1011.2
05 08:56 Vrbl 7 16.09 Fair CLR 17.8 5 43% 75.9 1011.2
05 07:56 Calm 16.09 Fair CLR 15.6 6.1 53% 75.9 1011.2
05 06:56 S 6 16.09 Fair CLR 12.8 5.6 62% 75.87 1010.7
05 05:56 SE 7 16.09 Fair CLR 11.1 5.6 69% 75.82 1010.1
05 04:56 E 7 16.09 Fair CLR 12.2 5.6 19.4 11.1 64% 75.77 1009.5
05 03:56 SE 6 16.09 Fair CLR 13.3 6.1 62% 75.74 1008.9
05 02:56 S 9 16.09 Fair CLR 13.3 6.7 65% 75.69 1008.4
05 01:56 SE 7 16.09 Fair CLR 13.9 6.7 62% 75.67 1008.2
05 00:56 S 7 16.09 Fair CLR 15.6 7.2 58% 75.64 1007.9
04 23:56 E 11 16.09 Fair CLR 18.3 7.8 51% 75.62 1007.3
04 22:56 NE 17 16.09 Fair CLR 19.4 6.1 27.2 19.4 42% 75.57 1006.8
04 21:56 E 11 16.09 Fair CLR 21.7 3.9 31% 75.54 1006.5
04 20:56 N 13 16.09 Fair CLR 22.8 3.3 28% 75.49 1005.9
04 19:56 Calm 16.09 Fair CLR 23.9 4.4 28% 25 75.46 1005.3
04 18:56 NW 9 16.09 Fair CLR 25.6 6.1 29% 26 75.41 1004.9
04 17:56 W 15 16.09 Fair CLR 26.7 5.6 26% 26 75.44 1005.2
04 16:56 NW 19 16.09 Fair CLR 27.2 6.1 27.8 19.4 26% 26 75.46 1005.4
04 15:56 NW 19 16.09 Fair CLR 27.8 3.9 22% 27 75.46 1005.6
04 14:56 NW 19 G 33 16.09 Fair CLR 27.8 4.4 22% 27 75.49 1005.7
04 13:56 NW 11 16.09 Fair CLR 26.1 8.3 32% 26 75.54 1006.3
04 12:56 Calm 16.09 Fair CLR 23.9 7.8 36% 25 75.59 1007.0
04 11:56 Calm 16.09 Fair CLR 22.2 8.3 41% 75.62 1007.5
04 10:56 N 7 16.09 Fair CLR 20 7.2 20 9.4 44% 75.64 1008.0
04 09:56 Vrbl 9 16.09 Fair CLR 17.2 7.2 52% 75.67 1008.4
04 08:56 N 7 16.09 Fair CLR 15 6.7 58% 75.69 1008.7
04 07:56 E 9 16.09 Fair CLR 13.9 5.6 58% 75.72 1008.8
04 06:56 NE 9 16.09 Fair CLR 12.8 5 59% 75.67 1008.3
04 05:56 SE 7 16.09 Fair CLR 9.4 5 74% 9 75.67 1008.1
04 04:56 E 6 16.09 Fair CLR 11.7 5 16.1 10.6 64% 75.67 1007.9
04 03:56 Calm 16.09 Fair CLR 10.6 5 69% 75.69 1008.3
04 02:56 Calm 16.09 Fair CLR 13.3 5 57% 75.64 1007.8
04 01:56 Calm 16.09 Fair CLR 14.4 4.4 51% 75.64 1007.7
04 00:56 Calm 16.09 Fair CLR 13.9 4.4 53% 75.64 1008.0
03 23:56 SW 9 16.09 Fair CLR 16.1 4.4 46% 75.64 1008.0
03 22:56 S 11 16.09 Fair CLR 16.1 5 27.8 16.1 48% 75.64 1008.1
03 21:56 SW 15 16.09 Fair CLR 17.2 5 45% 75.67 1008.1
03 20:56 S 13 16.09 Fair CLR 20.6 5.6 38% 75.64 1007.9
03 19:56 Calm 16.09 Fair CLR 25 1.7 22% 25 75.62 1007.4
03 18:56 W 7 16.09 Fair CLR 25.6 3.3 24% 25 75.64 1007.7
03 17:56 NW 17 16.09 Fair CLR 27.2 1.1 18% 26 75.67 1008.3
03 16:56 NW 20 G 33 16.09 Fair CLR 27.8 0 28.3 19.4 16% 27 75.72 1008.8
Date Time (pdt) Wind (kph) Vis. (km) Weather Sky Cond. Air Dwpt Max. Min. Relative Humidity Wind Chill (°C) Heat Index (°C) altimeter (cm) sea level (mb) 1 hr 3 hr 6 hr
6 hour
Temperature (ºC) Pressure Precipitation (cm)